createdAt,value
2017-02-06T07:14:24.028Z,16.6
2017-02-06T07:15:33.538Z,16.71
2017-02-06T07:16:42.515Z,16.75
2017-02-06T07:17:51.515Z,16.8
2017-02-06T07:19:00.911Z,16.73
2017-02-06T07:20:09.915Z,16.74
2017-02-06T07:21:18.900Z,16.81
2017-02-06T07:22:28.305Z,16.77
2017-02-06T07:23:37.279Z,16.81
2017-02-06T07:24:46.358Z,16.84
2017-02-06T07:25:55.335Z,16.78
2017-02-06T07:27:04.718Z,16.9
2017-02-06T07:28:14.124Z,16.96
2017-02-06T07:29:23.111Z,16.9
2017-02-06T07:30:32.094Z,16.98
2017-02-06T07:31:41.075Z,16.95
2017-02-06T07:32:50.067Z,16.98
2017-02-06T07:33:59.471Z,16.98
2017-02-06T07:35:08.455Z,16.96
2017-02-06T07:36:17.530Z,16.99
2017-02-06T07:37:26.508Z,17.08
2017-02-06T07:38:35.495Z,17.1
2017-02-06T07:39:44.497Z,17.11
2017-02-06T07:40:53.673Z,17.15
2017-02-06T07:42:02.707Z,17.13
2017-02-06T07:43:11.907Z,17.28
2017-02-06T07:44:21.173Z,17.21
2017-02-06T07:45:30.199Z,17.29
2017-02-06T07:46:39.948Z,17.32
2017-02-06T07:47:48.927Z,17.39
2017-02-06T07:48:57.925Z,17.33
2017-02-06T07:50:06.922Z,17.36
2017-02-06T07:51:15.905Z,17.38
2017-02-06T07:52:24.880Z,17.62
2017-02-06T07:53:33.863Z,17.86
2017-02-06T07:54:42.848Z,18.28
2017-02-06T07:55:51.835Z,18.57
2017-02-06T07:57:00.868Z,18.54
2017-02-06T07:58:09.866Z,18.76
2017-02-06T07:59:19.264Z,18.74
2017-02-06T08:00:28.258Z,19.17
2017-02-06T08:01:37.231Z,19.36
2017-02-06T08:02:46.217Z,19.37
2017-02-06T08:03:55.197Z,19.6
2017-02-06T08:05:04.193Z,19.62
2017-02-06T08:06:13.163Z,19.7
2017-02-06T08:07:22.165Z,19.76
2017-02-06T08:08:31.560Z,19.76
2017-02-06T08:09:40.548Z,19.62
2017-02-06T08:10:49.553Z,19.75
2017-02-06T08:11:58.956Z,19.92
2017-02-06T08:13:08.349Z,19.94
2017-02-06T08:14:17.339Z,20.53
2017-02-06T08:15:26.792Z,20.56
2017-02-06T08:16:36.300Z,20.6
2017-02-06T08:17:45.723Z,20.88
2017-02-06T08:18:54.808Z,20.87
2017-02-06T08:20:03.861Z,20.97
2017-02-06T08:21:12.846Z,21.23
2017-02-06T08:22:22.067Z,21.09
2017-02-06T08:23:31.470Z,21.3
2017-02-06T08:24:40.462Z,21.23
2017-02-06T08:25:49.848Z,21.46
2017-02-06T08:26:58.840Z,21.55
2017-02-06T08:28:07.840Z,21.58
2017-02-06T08:29:16.824Z,21.55
2017-02-06T08:30:26.230Z,21.63
2017-02-06T08:31:35.225Z,21.9
2017-02-06T08:32:44.210Z,21.85
2017-02-06T08:33:53.403Z,21.86
2017-02-06T08:35:02.783Z,21.86
2017-02-06T08:36:11.767Z,21.96
2017-02-06T08:37:20.751Z,22.06
2017-02-06T08:38:29.743Z,21.99
2017-02-06T08:39:38.734Z,21.82
2017-02-06T08:40:47.718Z,21.94
2017-02-06T08:41:56.717Z,21.83
2017-02-06T08:43:05.700Z,21.61
2017-02-06T08:44:14.691Z,21.3
2017-02-06T08:45:23.670Z,21.12
2017-02-06T08:46:32.667Z,20.99
2017-02-06T08:47:41.648Z,20.9
2017-02-06T08:48:50.635Z,20.91
2017-02-06T08:49:59.628Z,20.87
2017-02-06T08:51:08.646Z,20.79
2017-02-06T08:52:17.628Z,20.73
2017-02-06T08:53:26.626Z,20.73
2017-02-06T08:54:35.621Z,20.66
2017-02-06T08:55:44.636Z,20.63
2017-02-06T08:56:53.866Z,20.72
2017-02-06T08:58:02.844Z,20.73
2017-02-06T08:59:11.816Z,20.72
2017-02-06T09:00:20.819Z,20.65
2017-02-06T09:01:29.828Z,20.62
2017-02-06T09:02:39.140Z,20.54
2017-02-06T09:03:48.128Z,20.56
2017-02-06T09:04:57.112Z,20.6
2017-02-06T09:06:06.241Z,20.56
2017-02-06T09:07:15.699Z,20.5
2017-02-06T09:08:24.684Z,20.47
2017-02-06T09:09:33.681Z,20.43
2017-02-06T09:10:43.082Z,20.57
2017-02-06T09:11:52.061Z,20.54
2017-02-06T09:13:01.493Z,20.51
2017-02-06T09:14:10.471Z,20.54
2017-02-06T09:15:19.471Z,20.47
2017-02-06T09:16:28.454Z,20.48
2017-02-06T09:17:37.861Z,20.51
2017-02-06T09:18:46.850Z,20.51
2017-02-06T09:19:56.263Z,20.38
2017-02-06T09:21:05.242Z,20.46
2017-02-06T09:22:14.223Z,20.35
2017-02-06T09:23:23.217Z,20.37
2017-02-06T09:24:32.208Z,20.46
2017-02-06T09:25:41.258Z,20.4
2017-02-06T09:26:50.241Z,20.32
2017-02-06T09:27:59.235Z,20.31
2017-02-06T09:29:08.229Z,20.32
2017-02-06T09:30:17.223Z,20.31
2017-02-06T09:31:26.216Z,20.32
2017-02-06T09:32:35.204Z,20.37
2017-02-06T09:33:44.608Z,20.47
2017-02-06T09:34:53.591Z,20.24
2017-02-06T09:36:03.421Z,17.76
2017-02-06T09:37:12.413Z,16.65
2017-02-06T09:38:21.398Z,15.73
2017-02-06T09:39:30.382Z,15.82
2017-02-06T09:40:39.370Z,16.81
2017-02-06T09:41:48.362Z,17.7
2017-02-06T09:42:57.750Z,18.19
2017-02-06T09:44:06.742Z,18.49
2017-02-06T09:45:15.720Z,18.69
2017-02-06T09:46:24.703Z,18.94
2017-02-06T09:47:33.683Z,19.06
2017-02-06T09:48:42.669Z,19.02
2017-02-06T09:49:51.648Z,19.18
2017-02-06T09:51:00.637Z,19.06
2017-02-06T09:52:09.622Z,19.2
2017-02-06T09:53:19.024Z,19.17
2017-02-06T09:54:28.018Z,19.2
2017-02-06T09:55:36.995Z,19.2
2017-02-06T09:56:45.978Z,19.14
2017-02-06T09:57:55.400Z,19.12
2017-02-06T09:59:04.383Z,19.12
2017-02-06T10:00:13.372Z,19.24
2017-02-06T10:01:22.346Z,19.22
2017-02-06T10:02:31.329Z,19.22
2017-02-06T10:03:40.310Z,19.24
2017-02-06T10:04:49.305Z,19.25
2017-02-06T10:05:58.297Z,19.2
2017-02-06T10:07:07.280Z,19.22
2017-02-06T10:08:16.263Z,19.25
2017-02-06T10:09:25.237Z,19.32
2017-02-06T10:10:34.230Z,19.27
2017-02-06T10:11:43.221Z,19.25
2017-02-06T10:12:52.215Z,19.33
2017-02-06T10:14:01.200Z,19.28
2017-02-06T10:15:10.192Z,19.35
2017-02-06T10:16:19.179Z,19.3
2017-02-06T10:17:28.156Z,19.28
2017-02-06T10:18:37.138Z,19.25
2017-02-06T10:19:46.543Z,19.3
2017-02-06T10:20:55.578Z,19.37
2017-02-06T10:22:04.563Z,19.35
2017-02-06T10:23:13.546Z,19.36
2017-02-06T10:24:22.522Z,19.37
2017-02-06T10:25:31.519Z,19.37
2017-02-06T10:26:40.511Z,19.3
2017-02-06T10:27:49.498Z,19.35
2017-02-06T10:28:58.485Z,19.36
2017-02-06T10:30:07.879Z,19.39
2017-02-06T10:31:16.861Z,19.32
2017-02-06T10:32:25.848Z,19.39
2017-02-06T10:33:34.839Z,19.32
2017-02-06T10:34:43.823Z,19.4
2017-02-06T10:35:52.847Z,19.39
2017-02-06T10:37:01.839Z,19.42
2017-02-06T10:38:10.833Z,19.42
2017-02-06T10:39:19.852Z,19.39
2017-02-06T10:40:29.257Z,19.45
2017-02-06T10:41:38.242Z,19.45
2017-02-06T10:42:47.233Z,19.37
2017-02-06T10:43:56.220Z,19.42
2017-02-06T10:45:05.617Z,19.4
2017-02-06T10:46:14.600Z,19.47
2017-02-06T10:47:23.598Z,19.39
2017-02-06T10:48:32.580Z,19.46
2017-02-06T10:49:41.573Z,19.42
2017-02-06T10:50:50.559Z,19.42
2017-02-06T10:51:59.549Z,19.42
2017-02-06T10:53:08.531Z,19.42
2017-02-06T10:54:17.523Z,19.5
2017-02-06T10:55:26.511Z,19.42
2017-02-06T10:56:35.487Z,19.45
2017-02-06T10:57:44.525Z,19.45
2017-02-06T10:58:53.501Z,19.47
2017-02-06T11:00:02.488Z,19.5
2017-02-06T11:01:11.487Z,19.42
2017-02-06T11:02:20.472Z,19.45
2017-02-06T11:03:29.451Z,19.45
2017-02-06T11:04:38.438Z,19.51
2017-02-06T11:05:47.436Z,19.47
2017-02-06T11:06:56.424Z,19.45
2017-02-06T11:08:05.426Z,19.57
2017-02-06T11:09:14.403Z,19.53
2017-02-06T11:10:23.809Z,19.47
2017-02-06T11:11:32.805Z,19.47
2017-02-06T11:12:41.804Z,19.47
2017-02-06T11:13:50.774Z,19.51
2017-02-06T11:14:59.776Z,19.55
2017-02-06T11:16:08.762Z,19.53
2017-02-06T11:17:17.768Z,19.58
2017-02-06T11:18:27.169Z,19.55
2017-02-06T11:19:36.158Z,19.51
2017-02-06T11:20:45.141Z,19.6
2017-02-06T11:21:54.142Z,19.57
2017-02-06T11:23:03.130Z,19.64
2017-02-06T11:24:12.106Z,19.57
2017-02-06T11:25:21.095Z,19.61
2017-02-06T11:26:30.084Z,19.5
2017-02-06T11:27:39.484Z,19.62
2017-02-06T11:28:48.469Z,19.55
2017-02-06T11:29:57.443Z,19.6
2017-02-06T11:31:06.845Z,19.57
2017-02-06T11:32:15.832Z,19.61
2017-02-06T11:33:24.827Z,19.57
2017-02-06T11:34:33.807Z,19.55
2017-02-06T11:35:42.803Z,19.62
2017-02-06T11:36:51.781Z,19.65
2017-02-06T11:38:00.758Z,19.61
2017-02-06T11:39:09.756Z,19.53
2017-02-06T11:40:18.753Z,19.62
2017-02-06T11:41:27.735Z,19.57
2017-02-06T11:42:36.728Z,19.6
2017-02-06T11:43:45.715Z,19.53
2017-02-06T11:44:54.704Z,19.62
2017-02-06T11:46:03.695Z,19.55
2017-02-06T11:47:12.691Z,19.6
2017-02-06T11:48:21.667Z,19.64
2017-02-06T11:49:30.645Z,19.64
2017-02-06T11:50:39.630Z,19.64
2017-02-06T11:51:48.620Z,19.65
2017-02-06T11:52:57.648Z,19.58
2017-02-06T11:54:06.635Z,19.6
2017-02-06T11:55:15.619Z,19.58
2017-02-06T11:56:25.016Z,19.64
2017-02-06T11:57:33.998Z,19.61
2017-02-06T11:58:42.975Z,19.6
2017-02-06T11:59:51.966Z,19.65
2017-02-06T12:01:00.961Z,19.6
2017-02-06T12:02:09.936Z,19.61
2017-02-06T12:03:18.931Z,19.67
2017-02-06T12:04:27.918Z,19.61
2017-02-06T12:05:36.905Z,19.6
2017-02-06T12:06:45.891Z,19.65
2017-02-06T12:07:54.874Z,19.65
2017-02-06T12:09:03.855Z,19.65
2017-02-06T12:10:13.656Z,19.69
2017-02-06T12:11:22.647Z,19.7
2017-02-06T12:12:31.627Z,19.67
2017-02-06T12:13:40.609Z,19.73
2017-02-06T12:14:49.597Z,19.73
2017-02-06T12:15:58.582Z,19.64
2017-02-06T12:17:07.581Z,19.7
2017-02-06T12:18:16.578Z,19.72
2017-02-06T12:19:25.553Z,19.7
2017-02-06T12:20:34.546Z,19.64
2017-02-06T12:21:43.529Z,19.7
2017-02-06T12:22:52.521Z,19.72
2017-02-06T12:24:01.504Z,19.69
2017-02-06T12:25:10.511Z,19.65
2017-02-06T12:26:19.509Z,19.69
2017-02-06T12:27:28.494Z,19.7
2017-02-06T12:28:37.489Z,19.73
2017-02-06T12:29:46.471Z,19.76
2017-02-06T12:30:55.460Z,19.82
2017-02-06T12:32:04.449Z,19.73
2017-02-06T12:33:13.438Z,19.73
2017-02-06T12:34:22.421Z,19.77
2017-02-06T12:35:31.408Z,19.62
2017-02-06T12:36:40.400Z,19.75
2017-02-06T12:37:49.384Z,19.77
2017-02-06T12:38:58.373Z,19.75
2017-02-06T12:40:07.774Z,19.73
2017-02-06T12:41:16.757Z,19.72
2017-02-06T12:42:25.741Z,19.67
2017-02-06T12:43:34.721Z,19.76
2017-02-06T12:44:43.696Z,19.82
2017-02-06T12:45:52.686Z,19.76
2017-02-06T12:47:01.683Z,19.79
2017-02-06T12:48:10.670Z,19.75
2017-02-06T12:49:19.659Z,19.73
2017-02-06T12:50:28.646Z,19.79
2017-02-06T12:51:37.626Z,19.8
2017-02-06T12:52:49.336Z,19.82
2017-02-06T12:53:58.320Z,19.76
2017-02-06T12:55:07.300Z,19.75
2017-02-06T12:56:16.299Z,19.83
2017-02-06T12:57:25.273Z,19.76
2017-02-06T12:58:34.265Z,19.77
2017-02-06T12:59:43.254Z,19.8
2017-02-06T13:00:52.251Z,19.79
2017-02-06T13:02:01.233Z,19.72
2017-02-06T13:03:11.036Z,19.79
2017-02-06T13:04:20.061Z,19.8
2017-02-06T13:05:29.055Z,19.72
2017-02-06T13:06:38.059Z,19.79
2017-02-06T13:07:47.456Z,19.82
2017-02-06T13:08:56.440Z,19.85
2017-02-06T13:10:05.427Z,19.73
2017-02-06T13:11:14.421Z,19.82
2017-02-06T13:12:23.424Z,19.85
2017-02-06T13:13:32.413Z,19.87
2017-02-06T13:14:41.389Z,19.75
2017-02-06T13:15:50.387Z,19.79
2017-02-06T13:16:59.789Z,19.76
2017-02-06T13:18:09.201Z,19.75
2017-02-06T13:19:18.190Z,19.88
2017-02-06T13:20:27.592Z,19.76
2017-02-06T13:21:36.577Z,19.8
2017-02-06T13:22:45.563Z,19.83
2017-02-06T13:23:54.558Z,19.87
2017-02-06T13:25:03.539Z,19.76
2017-02-06T13:26:12.534Z,19.87
2017-02-06T13:27:21.935Z,19.77
2017-02-06T13:28:30.917Z,19.9
2017-02-06T13:29:40.317Z,19.79
2017-02-06T13:30:49.303Z,19.77
2017-02-06T13:31:58.292Z,19.87
2017-02-06T13:33:07.280Z,19.87
2017-02-06T13:34:16.267Z,19.87
2017-02-06T13:35:25.261Z,19.9
2017-02-06T13:36:34.291Z,19.85
2017-02-06T13:37:43.287Z,19.88
2017-02-06T13:38:52.270Z,19.85
2017-02-06T13:40:01.673Z,19.75
2017-02-06T13:41:11.074Z,19.88
2017-02-06T13:42:20.065Z,19.79
2017-02-06T13:43:29.060Z,19.88
2017-02-06T13:44:38.044Z,19.82
2017-02-06T13:45:47.452Z,19.76
2017-02-06T13:46:56.842Z,19.87
2017-02-06T13:48:05.836Z,19.87
2017-02-06T13:49:14.824Z,19.87
2017-02-06T13:50:23.824Z,19.85
2017-02-06T13:51:32.830Z,19.79
2017-02-06T13:52:41.811Z,19.91
2017-02-06T13:53:50.804Z,19.95
2017-02-06T13:54:59.793Z,19.87
2017-02-06T13:56:08.788Z,19.95
2017-02-06T13:57:17.776Z,19.82
2017-02-06T13:58:26.774Z,19.83
2017-02-06T13:59:35.766Z,19.88
2017-02-06T14:00:44.795Z,19.9
2017-02-06T14:01:53.788Z,19.88
2017-02-06T14:03:02.764Z,19.9
2017-02-06T14:04:12.165Z,19.87
2017-02-06T14:05:21.147Z,19.9
2017-02-06T14:06:30.114Z,19.82
2017-02-06T14:07:39.155Z,19.79
2017-02-06T14:08:48.154Z,19.8
2017-02-06T14:09:57.134Z,19.88
2017-02-06T14:11:06.129Z,19.92
2017-02-06T14:12:15.108Z,19.9
2017-02-06T14:13:24.104Z,19.92
2017-02-06T14:14:33.092Z,19.88
2017-02-06T14:15:42.078Z,19.85
2017-02-06T14:16:51.063Z,19.91
2017-02-06T14:18:00.051Z,19.87
2017-02-06T14:19:09.040Z,19.8
2017-02-06T14:20:18.012Z,19.9
2017-02-06T14:21:26.996Z,19.87
2017-02-06T14:22:35.985Z,19.83
2017-02-06T14:23:44.988Z,19.82
2017-02-06T14:24:53.971Z,19.95
2017-02-06T14:26:02.962Z,19.73
2017-02-06T14:27:11.956Z,19.79
2017-02-06T14:28:20.936Z,19.76
2017-02-06T14:29:29.923Z,19.82
2017-02-06T14:30:38.910Z,19.76
2017-02-06T14:31:47.884Z,19.85
2017-02-06T14:32:56.905Z,19.8
2017-02-06T14:34:05.893Z,19.94
2017-02-06T14:35:15.294Z,19.94
2017-02-06T14:36:24.698Z,19.88
2017-02-06T14:37:33.702Z,19.87
2017-02-06T14:38:43.112Z,19.91
2017-02-06T14:39:52.927Z,19.95
2017-02-06T14:41:02.838Z,19.76
2017-02-06T14:42:11.821Z,19.95
2017-02-06T14:43:20.851Z,19.94
2017-02-06T14:44:29.860Z,19.91
2017-02-06T14:45:38.852Z,19.88
2017-02-06T14:46:47.850Z,19.87
2017-02-06T14:47:56.833Z,19.91
2017-02-06T14:49:05.813Z,19.98
2017-02-06T14:50:14.806Z,19.91
2017-02-06T14:51:23.807Z,19.9
2017-02-06T14:52:32.786Z,19.79
2017-02-06T14:53:41.765Z,19.85
2017-02-06T14:54:50.761Z,19.87
2017-02-06T14:55:59.751Z,19.73
2017-02-06T14:57:08.755Z,19.9
2017-02-06T14:58:17.855Z,19.88
2017-02-06T14:59:27.803Z,19.95
2017-02-06T15:00:36.974Z,19.92
2017-02-06T15:01:46.286Z,19.9
2017-02-06T15:02:55.501Z,19.98
2017-02-06T15:04:04.672Z,19.92
2017-02-06T15:05:13.906Z,19.97
2017-02-06T15:06:23.073Z,19.95
2017-02-06T15:07:32.155Z,20.01
2017-02-06T15:08:41.136Z,20.02
2017-02-06T15:09:50.123Z,19.98
2017-02-06T15:10:59.515Z,20.02
2017-02-06T15:12:08.535Z,20
2017-02-06T15:13:17.547Z,19.98
2017-02-06T15:14:26.954Z,20.07
2017-02-06T15:15:35.939Z,20.07
2017-02-06T15:16:44.961Z,20.06
2017-02-06T15:17:53.941Z,20.1
2017-02-06T15:19:02.922Z,20.07
2017-02-06T15:20:11.931Z,19.98
2017-02-06T15:21:20.915Z,19.95
2017-02-06T15:22:29.907Z,20.07
2017-02-06T15:23:38.905Z,20.06
2017-02-06T15:24:47.891Z,20.02
2017-02-06T15:25:56.883Z,20
2017-02-06T15:27:05.871Z,20.07
2017-02-06T15:28:14.867Z,20.01
2017-02-06T15:29:24.703Z,20.07
2017-02-06T15:30:33.695Z,19.98
2017-02-06T15:31:42.680Z,20
2017-02-06T15:32:51.672Z,20
2017-02-06T15:34:00.663Z,20
2017-02-06T15:35:09.649Z,19.92
2017-02-06T15:36:18.631Z,20
2017-02-06T15:37:27.689Z,20.04
2017-02-06T15:38:37.468Z,20.09
2017-02-06T15:39:46.477Z,20.01
2017-02-06T15:40:55.496Z,20.04
2017-02-06T15:42:04.850Z,20
2017-02-06T15:43:15.273Z,20.01
2017-02-06T15:44:24.271Z,20.01
2017-02-06T15:45:33.350Z,20.04
2017-02-06T15:46:42.770Z,20.01
2017-02-06T15:47:51.876Z,20
2017-02-06T15:49:00.982Z,20.12
2017-02-06T15:50:10.267Z,20.1
2017-02-06T15:51:19.386Z,20.09
2017-02-06T15:52:28.395Z,20.09
2017-02-06T15:53:37.580Z,20.13
2017-02-06T15:54:47.725Z,20.07
2017-02-06T15:55:57.638Z,20.17
2017-02-06T15:57:06.634Z,20.2
2017-02-06T15:58:15.779Z,20.09
2017-02-06T15:59:24.798Z,20.15
2017-02-06T16:00:36.998Z,20.16
2017-02-06T16:01:45.988Z,20.19
2017-02-06T16:02:55.152Z,20.17
2017-02-06T16:04:04.570Z,20.16
2017-02-06T16:05:13.561Z,20.17
2017-02-06T16:06:22.552Z,20.17
2017-02-06T16:07:32.413Z,20.16
2017-02-06T16:08:42.701Z,20.16
2017-02-06T16:09:51.866Z,20.19
2017-02-06T16:11:00.859Z,20.16
2017-02-06T16:12:09.914Z,20.17
2017-02-06T16:13:19.267Z,20.16
2017-02-06T16:14:28.253Z,20.07
2017-02-06T16:15:37.672Z,20.17
2017-02-06T16:16:46.669Z,20.15
2017-02-06T16:17:55.658Z,20.17
2017-02-06T16:19:04.642Z,20.17
2017-02-06T16:20:13.625Z,20.12
2017-02-06T16:21:22.619Z,20.1
2017-02-06T16:22:31.593Z,20.19
2017-02-06T16:23:40.597Z,20.16
2017-02-06T16:24:49.568Z,20.15
2017-02-06T16:25:58.554Z,20.22
2017-02-06T16:27:07.541Z,20.2
2017-02-06T16:28:16.538Z,20.19
2017-02-06T16:29:25.933Z,20.09
2017-02-06T16:30:34.929Z,20.17
2017-02-06T16:31:43.906Z,20.19
2017-02-06T16:32:52.883Z,20.17
2017-02-06T16:34:01.873Z,20.2
2017-02-06T16:35:10.862Z,20.27
2017-02-06T16:39:08.226Z,20.4
